Time;durP1;ratioP1;P1;durP2;ratioP2;P2;SDS_P1;SDS_P2;PMS_P1;PMS_P2;Temp;Humidity;BMP_temperature;BMP_pressure;BME280_temperature;BME280_humidity;BME280_pressure;Samples;Min_cycle;Max_cycle;Signal;HPM_P1;HPM_P2
2023/07/26 00:00:21;;;;;;;1.60;1.50;;;21.90;67.00;;;;;;5010988;28;20191;-69
2023/07/26 00:02:47;;;;;;;1.80;1.70;;;21.80;66.90;;;;;;5011285;28;20192;-69
2023/07/26 00:05:12;;;;;;;2.00;1.90;;;21.80;66.90;;;;;;5002366;28;20227;-69
2023/07/26 00:07:38;;;;;;;2.33;2.17;;;21.80;66.90;;;;;;5010403;28;20183;-68
2023/07/26 00:10:05;;;;;;;2.22;2.13;;;21.90;67.00;;;;;;5006413;28;20192;-68
2023/07/26 00:12:30;;;;;;;2.00;1.90;;;21.90;67.00;;;;;;4994935;28;20186;-68
2023/07/26 00:14:56;;;;;;;2.08;1.98;;;21.80;66.90;;;;;;4992456;28;20211;-69
2023/07/26 00:17:22;;;;;;;2.58;1.90;;;21.90;67.00;;;;;;5005279;28;20255;-69
2023/07/26 00:19:47;;;;;;;1.92;1.83;;;21.80;66.90;;;;;;5010631;28;20188;-69
2023/07/26 00:22:13;;;;;;;2.10;2.00;;;21.80;66.90;;;;;;4999445;28;20196;-69
2023/07/26 00:24:39;;;;;;;1.90;1.80;;;21.80;66.90;;;;;;4985911;28;20298;-69
2023/07/26 00:27:05;;;;;;;2.15;2.00;;;21.80;66.90;;;;;;4993881;28;20212;-69
2023/07/26 00:29:31;;;;;;;2.30;2.10;;;21.90;67.70;;;;;;4983331;28;20172;-69
2023/07/26 00:31:56;;;;;;;2.35;2.15;;;21.80;66.90;;;;;;4988971;28;20219;-69
2023/07/26 00:34:22;;;;;;;2.22;2.13;;;21.80;66.90;;;;;;5011970;28;20253;-69
2023/07/26 00:36:48;;;;;;;2.22;1.90;;;21.80;66.90;;;;;;5011608;28;20267;-69
2023/07/26 00:39:14;;;;;;;1.70;1.60;;;21.80;66.90;;;;;;5010159;28;20183;-69
2023/07/26 00:41:40;;;;;;;2.00;1.90;;;21.80;66.90;;;;;;4990888;28;20185;-69
2023/07/26 00:44:06;;;;;;;2.05;1.95;;;21.80;66.90;;;;;;4985355;28;20188;-68
2023/07/26 00:46:33;;;;;;;2.10;2.00;;;21.80;66.90;;;;;;5003064;28;20239;-69
2023/07/26 00:48:59;;;;;;;2.10;2.00;;;21.80;66.90;;;;;;5001842;28;20180;-68
2023/07/26 00:51:27;;;;;;;2.08;1.98;;;21.80;66.90;;;;;;4994046;28;20192;-69
2023/07/26 00:53:53;;;;;;;2.08;1.98;;;21.80;66.90;;;;;;4991726;28;20222;-69
2023/07/26 00:56:20;;;;;;;1.73;1.63;;;21.80;66.90;;;;;;5002958;28;20199;-68
2023/07/26 00:58:47;;;;;;;2.15;1.95;;;21.80;66.90;;;;;;5013972;28;20191;-69
2023/07/26 01:01:14;;;;;;;1.95;1.85;;;21.80;66.90;;;;;;5013768;28;20237;-72
2023/07/26 01:03:40;;;;;;;1.98;1.88;;;21.80;66.90;;;;;;5014001;28;20192;-69
2023/07/26 01:06:17;;;;;;;2.28;2.10;;;21.80;66.90;;;;;;4997719;28;20215;-69
2023/07/26 01:09:08;;;;;;;2.30;2.20;;;21.80;66.90;;;;;;5017097;28;20199;-69
2023/07/26 01:11:54;;;;;;;1.95;1.85;;;21.80;66.90;;;;;;5030772;28;20303;-69
2023/07/26 01:15:06;;;;;;;1.92;1.60;;;21.80;66.90;;;;;;4989543;28;20718;-69
2023/07/26 01:17:34;;;;;;;2.03;1.92;;;21.80;66.90;;;;;;5013727;28;20737;-68
2023/07/26 01:20:00;;;;;;;2.13;2.03;;;21.80;66.90;;;;;;5005775;28;20238;-69
2023/07/26 01:22:26;;;;;;;1.88;1.77;;;21.80;66.90;;;;;;4997380;28;20200;-69
2023/07/26 01:24:52;;;;;;;2.15;2.05;;;21.80;66.90;;;;;;5010387;28;20690;-68
2023/07/26 01:27:17;;;;;;;2.17;2.08;;;21.80;66.90;;;;;;5007853;28;20218;-69
2023/07/26 01:29:43;;;;;;;2.30;2.10;;;21.70;66.80;;;;;;4986480;28;20177;-68
2023/07/26 01:32:14;;;;;;;2.33;2.20;;;21.80;66.90;;;;;;5013394;28;20218;-69
2023/07/26 01:34:41;;;;;;;2.13;2.03;;;21.80;66.90;;;;;;5005093;28;20212;-68
2023/07/26 01:37:08;;;;;;;2.35;2.15;;;21.80;66.90;;;;;;5011901;28;20270;-69
2023/07/26 01:39:33;;;;;;;2.22;2.08;;;21.80;66.90;;;;;;5014198;28;20191;-68
2023/07/26 01:41:59;;;;;;;2.35;2.25;;;21.70;67.50;;;;;;5012852;28;20189;-69
2023/07/26 01:44:25;;;;;;;2.22;2.13;;;21.70;66.70;;;;;;5013194;28;20249;-69
2023/07/26 01:46:52;;;;;;;2.30;2.20;;;21.80;66.90;;;;;;4996823;28;20235;-69
2023/07/26 01:49:21;;;;;;;2.03;1.92;;;21.80;66.90;;;;;;5005795;28;20242;-69
2023/07/26 01:51:46;;;;;;;2.30;2.10;;;21.80;66.90;;;;;;4993330;28;20193;-69
2023/07/26 01:54:12;;;;;;;2.72;2.53;;;21.70;66.70;;;;;;5006578;28;20209;-68
2023/07/26 01:56:38;;;;;;;2.00;1.90;;;21.80;66.90;;;;;;4988297;28;20190;-69
2023/07/26 01:59:04;;;;;;;2.10;2.00;;;21.70;66.70;;;;;;4990510;28;20216;-70
2023/07/26 02:01:30;;;;;;;2.60;2.30;;;21.70;66.70;;;;;;5015722;28;20185;-69
2023/07/26 02:03:55;;;;;;;2.45;2.28;;;21.80;66.90;;;;;;5012899;28;20198;-69
2023/07/26 02:06:21;;;;;;;2.00;1.90;;;21.70;67.60;;;;;;5008688;28;20218;-69
2023/07/26 02:08:47;;;;;;;2.08;1.98;;;21.80;66.80;;;;;;4996453;28;20183;-69
2023/07/26 02:11:13;;;;;;;2.33;2.22;;;21.80;66.90;;;;;;4988436;28;20177;-69
2023/07/26 02:13:38;;;;;;;2.33;2.10;;;21.80;66.90;;;;;;5004753;28;20176;-69
2023/07/26 02:16:04;;;;;;;2.40;2.17;;;21.80;66.90;;;;;;5001369;28;20222;-69
2023/07/26 02:18:32;;;;;;;2.20;2.00;;;21.70;66.80;;;;;;5011185;28;20188;-69
2023/07/26 02:20:59;;;;;;;2.60;2.40;;;21.80;66.90;;;;;;4986998;28;20235;-69
2023/07/26 02:23:24;;;;;;;2.10;2.00;;;21.80;66.90;;;;;;4995751;28;20192;-69
2023/07/26 02:25:50;;;;;;;2.17;2.08;;;21.70;66.70;;;;;;5012605;28;20226;-69
2023/07/26 02:28:19;;;;;;;2.17;2.05;;;21.70;66.70;;;;;;4992649;28;20278;-69
2023/07/26 02:30:44;;;;;;;2.00;1.90;;;21.80;66.90;;;;;;5013142;28;20200;-68
2023/07/26 02:33:10;;;;;;;2.10;1.90;;;21.70;66.70;;;;;;4992095;28;20195;-69
2023/07/26 02:35:36;;;;;;;2.40;2.20;;;21.70;66.70;;;;;;4995754;28;20228;-68
2023/07/26 02:38:03;;;;;;;1.92;1.83;;;21.80;66.80;;;;;;5004278;28;20220;-68
2023/07/26 02:40:29;;;;;;;1.83;1.73;;;21.80;66.80;;;;;;5012074;28;20200;-68
2023/07/26 02:42:55;;;;;;;2.10;2.00;;;21.80;66.80;;;;;;5009381;28;20246;-69
2023/07/26 02:45:21;;;;;;;1.88;1.77;;;21.80;66.70;;;;;;5002119;28;20216;-69
2023/07/26 02:47:46;;;;;;;2.20;2.00;;;21.70;66.60;;;;;;4987971;28;20689;-69
2023/07/26 02:50:12;;;;;;;2.17;2.00;;;21.70;66.50;;;;;;4996012;28;20180;-68
2023/07/26 02:52:38;;;;;;;1.92;1.83;;;21.80;66.70;;;;;;4996138;28;20195;-69
2023/07/26 02:55:04;;;;;;;2.05;1.95;;;21.70;66.50;;;;;;5008939;28;20231;-69
2023/07/26 02:57:30;;;;;;;1.98;1.88;;;21.70;66.50;;;;;;4991897;28;20176;-68
2023/07/26 02:59:56;;;;;;;1.85;1.75;;;21.70;66.50;;;;;;5012010;28;20328;-68
2023/07/26 03:02:23;;;;;;;2.35;1.95;;;21.70;66.50;;;;;;4995675;28;20176;-69
2023/07/26 03:04:48;;;;;;;1.80;1.70;;;21.70;66.50;;;;;;5011905;28;20235;-68
2023/07/26 03:07:14;;;;;;;2.28;2.08;;;21.70;66.50;;;;;;5011862;28;20269;-68
2023/07/26 03:09:40;;;;;;;1.73;1.63;;;21.70;66.50;;;;;;4971013;28;20226;-69
2023/07/26 03:12:06;;;;;;;2.50;2.05;;;21.70;66.60;;;;;;5011591;28;20241;-69
2023/07/26 03:14:32;;;;;;;2.33;2.03;;;21.70;66.50;;;;;;5011245;28;20598;-69
2023/07/26 03:16:58;;;;;;;2.30;2.20;;;21.70;66.50;;;;;;5003333;28;20184;-69
2023/07/26 03:19:24;;;;;;;2.00;1.80;;;21.70;66.50;;;;;;5009004;28;20242;-68
2023/07/26 03:21:49;;;;;;;1.67;1.58;;;21.70;66.50;;;;;;4987784;28;20206;-69
2023/07/26 03:24:15;;;;;;;2.42;1.70;;;21.60;66.50;;;;;;4995059;28;20282;-69
2023/07/26 03:26:41;;;;;;;2.25;2.05;;;21.70;66.50;;;;;;4987607;28;20212;-68
2023/07/26 03:29:07;;;;;;;2.00;1.90;;;21.70;66.50;;;;;;4990043;28;20201;-69
2023/07/26 03:31:32;;;;;;;2.00;1.90;;;21.70;66.50;;;;;;5011217;28;20187;-68
2023/07/26 03:33:58;;;;;;;1.75;1.65;;;21.70;66.40;;;;;;5008112;28;20184;-68
2023/07/26 03:36:24;;;;;;;1.88;1.77;;;21.70;66.50;;;;;;4975982;28;20192;-68
2023/07/26 03:38:50;;;;;;;1.83;1.70;;;21.60;66.30;;;;;;4978649;28;20271;-69
2023/07/26 03:41:15;;;;;;;1.40;1.30;;;21.70;66.50;;;;;;4998944;28;20184;-68
2023/07/26 03:43:41;;;;;;;1.70;1.60;;;21.70;66.50;;;;;;5010207;28;20185;-69
2023/07/26 03:46:07;;;;;;;1.77;1.67;;;21.70;66.50;;;;;;4994565;28;20216;-69
2023/07/26 03:48:37;;;;;;;2.00;1.90;;;21.60;66.40;;;;;;4995046;28;20778;-68
2023/07/26 03:51:02;;;;;;;1.60;1.50;;;21.60;66.40;;;;;;4994621;28;20180;-69
2023/07/26 03:53:28;;;;;;;1.70;1.60;;;21.70;66.50;;;;;;5009010;28;20313;-68
2023/07/26 03:55:55;;;;;;;1.83;1.73;;;21.60;66.40;;;;;;5022880;28;20695;-69
2023/07/26 03:58:21;;;;;;;1.75;1.65;;;21.60;66.30;;;;;;5007247;28;20191;-69
2023/07/26 04:00:46;;;;;;;2.30;2.10;;;21.70;66.40;;;;;;5002527;28;20200;-68
2023/07/26 04:03:12;;;;;;;1.60;1.50;;;21.60;66.40;;;;;;4991391;28;20199;-69
2023/07/26 04:05:38;;;;;;;1.73;1.63;;;21.60;66.30;;;;;;4998786;28;20226;-69
2023/07/26 04:08:04;;;;;;;1.75;1.65;;;21.60;66.40;;;;;;5006014;28;20272;-68
2023/07/26 04:10:30;;;;;;;1.67;1.58;;;21.60;66.30;;;;;;4994870;28;20188;-69
2023/07/26 04:12:55;;;;;;;1.58;1.58;;;21.60;66.30;;;;;;5030572;28;20183;-68
2023/07/26 04:15:21;;;;;;;1.70;1.60;;;21.60;66.40;;;;;;5025730;28;20200;-68
2023/07/26 04:17:47;;;;;;;1.75;1.65;;;21.60;66.30;;;;;;5007309;28;20250;-68
2023/07/26 04:20:13;;;;;;;1.70;1.60;;;21.60;66.30;;;;;;5020996;28;20176;-69
2023/07/26 04:22:38;;;;;;;1.38;1.27;;;21.60;66.30;;;;;;5011414;28;20187;-69
2023/07/26 04:25:05;;;;;;;1.65;1.52;;;21.60;66.30;;;;;;5002553;28;20218;-69
2023/07/26 04:27:31;;;;;;;1.70;1.60;;;21.60;66.30;;;;;;4990460;28;20727;-68
2023/07/26 04:29:56;;;;;;;1.52;1.42;;;21.60;66.20;;;;;;4986859;28;20187;-68
2023/07/26 04:32:23;;;;;;;1.90;1.60;;;21.60;66.30;;;;;;4986285;28;20186;-68
2023/07/26 04:34:48;;;;;;;2.03;1.67;;;21.60;66.30;;;;;;4996798;28;20257;-68
2023/07/26 04:37:14;;;;;;;1.60;1.50;;;21.60;66.50;;;;;;5008655;28;20569;-68
2023/07/26 04:39:40;;;;;;;1.58;1.48;;;21.60;66.40;;;;;;5002054;28;20227;-68
2023/07/26 04:42:06;;;;;;;1.88;1.60;;;21.60;66.30;;;;;;4991665;28;20187;-68
2023/07/26 04:44:32;;;;;;;1.70;1.60;;;21.60;66.40;;;;;;5020697;28;20582;-71
2023/07/26 04:46:58;;;;;;;1.70;1.60;;;21.60;66.30;;;;;;4994184;28;20211;-68
2023/07/26 04:49:24;;;;;;;1.70;1.60;;;21.60;66.30;;;;;;4977941;28;20184;-68
2023/07/26 04:51:49;;;;;;;1.52;1.42;;;21.60;66.30;;;;;;4990618;28;20189;-69
2023/07/26 04:54:15;;;;;;;1.70;1.60;;;21.60;66.30;;;;;;5006608;28;20219;-69
2023/07/26 04:56:41;;;;;;;1.30;1.30;;;21.60;66.30;;;;;;4977494;28;20203;-69
2023/07/26 04:59:06;;;;;;;1.70;1.60;;;21.60;66.30;;;;;;5002251;28;20225;-69
2023/07/26 05:01:32;;;;;;;1.40;1.30;;;21.60;66.30;;;;;;5008077;28;20193;-68
2023/07/26 05:03:58;;;;;;;1.35;1.35;;;21.60;66.30;;;;;;4977834;28;20191;-69
2023/07/26 05:06:26;;;;;;;1.60;1.50;;;21.60;66.30;;;;;;5002534;28;20213;-69
2023/07/26 05:08:52;;;;;;;1.67;1.58;;;21.60;66.30;;;;;;4986331;28;20188;-69
2023/07/26 05:11:20;;;;;;;1.40;1.30;;;21.60;66.30;;;;;;5010193;28;20184;-68
2023/07/26 05:13:47;;;;;;;1.63;1.52;;;21.60;66.30;;;;;;4977637;28;20191;-69
2023/07/26 05:16:13;;;;;;;1.52;1.42;;;21.60;66.40;;;;;;4977509;28;20240;-70
2023/07/26 05:18:38;;;;;;;1.58;1.48;;;21.60;66.40;;;;;;4993949;28;20219;-70
2023/07/26 05:21:04;;;;;;;1.33;1.23;;;21.60;66.30;;;;;;4987333;28;20191;-69
2023/07/26 05:23:30;;;;;;;1.60;1.50;;;21.60;66.30;;;;;;4988292;28;20239;-70
2023/07/26 05:25:56;;;;;;;1.33;1.25;;;21.60;66.30;;;;;;5001366;28;20207;-70
2023/07/26 05:28:21;;;;;;;1.52;1.42;;;21.60;66.20;;;;;;5006914;28;20288;-69
2023/07/26 05:30:47;;;;;;;1.35;1.25;;;21.60;66.40;;;;;;5008791;28;20184;-69
2023/07/26 05:33:14;;;;;;;1.38;1.27;;;21.60;66.20;;;;;;5007431;28;20705;-70
2023/07/26 05:35:39;;;;;;;1.38;1.27;;;21.60;66.20;;;;;;5026809;28;20775;-70
2023/07/26 05:38:05;;;;;;;1.60;1.50;;;21.60;66.10;;;;;;4987166;28;20188;-70
2023/07/26 05:40:31;;;;;;;1.33;1.25;;;21.60;66.20;;;;;;5003876;28;20183;-70
2023/07/26 05:42:56;;;;;;;1.60;1.50;;;21.60;66.10;;;;;;4993097;28;20193;-69
2023/07/26 05:45:22;;;;;;;1.63;1.40;;;21.60;66.10;;;;;;4992802;28;20703;-69
2023/07/26 05:47:48;;;;;;;2.15;1.25;;;21.60;66.20;;;;;;4980540;28;20301;-71
2023/07/26 05:50:14;;;;;;;1.45;1.35;;;21.60;66.10;;;;;;4996789;28;20575;-70
2023/07/26 05:52:40;;;;;;;1.70;1.60;;;21.60;66.10;;;;;;5014297;28;20188;-70
2023/07/26 05:55:07;;;;;;;1.50;1.40;;;21.60;66.10;;;;;;4996984;28;20223;-70
2023/07/26 05:57:33;;;;;;;1.60;1.50;;;21.60;66.20;;;;;;4994447;28;20184;-69
2023/07/26 05:59:59;;;;;;;1.10;1.10;;;21.60;66.10;;;;;;4988606;28;20219;-69
2023/07/26 06:02:25;;;;;;;1.50;1.40;;;21.60;66.20;;;;;;4980630;28;20183;-69
2023/07/26 06:04:51;;;;;;;1.55;1.45;;;21.60;66.20;;;;;;5004911;28;20295;-69
2023/07/26 06:07:17;;;;;;;1.58;1.48;;;21.60;66.20;;;;;;5012821;28;20220;-69
2023/07/26 06:09:44;;;;;;;1.30;1.20;;;21.60;66.20;;;;;;5012747;28;20188;-69
2023/07/26 06:12:10;;;;;;;1.80;1.10;;;21.60;66.20;;;;;;5013338;28;20196;-70
2023/07/26 06:14:36;;;;;;;1.52;1.42;;;21.60;66.20;;;;;;4997611;28;20219;-69
2023/07/26 06:17:03;;;;;;;1.63;1.45;;;21.60;66.20;;;;;;4988339;28;20191;-69
2023/07/26 06:19:29;;;;;;;1.35;1.25;;;21.60;66.20;;;;;;5012654;28;20238;-70
2023/07/26 06:21:57;;;;;;;1.55;1.45;;;21.60;66.10;;;;;;4988688;28;20278;-69
2023/07/26 06:24:26;;;;;;;3.00;1.42;;;21.60;66.20;;;;;;4980190;28;20212;-69
2023/07/26 06:26:54;;;;;;;1.38;1.27;;;21.60;66.20;;;;;;5020658;28;20208;-69
2023/07/26 06:29:20;;;;;;;1.83;1.42;;;21.60;66.10;;;;;;5009725;28;20208;-70
2023/07/26 06:31:48;;;;;;;1.17;1.08;;;21.60;66.20;;;;;;5003100;28;20567;-69
2023/07/26 06:34:14;;;;;;;1.05;1.05;;;21.60;66.10;;;;;;5012683;28;20216;-69
2023/07/26 06:36:40;;;;;;;1.45;1.35;;;21.60;66.20;;;;;;5012324;28;20180;-71
2023/07/26 06:39:05;;;;;;;1.15;1.08;;;21.60;66.20;;;;;;5012442;28;20195;-69
2023/07/26 06:41:32;;;;;;;1.27;1.17;;;21.60;66.10;;;;;;5012173;28;20196;-70
2023/07/26 06:43:58;;;;;;;1.52;1.42;;;21.60;66.10;;;;;;5009044;28;20276;-70
2023/07/26 06:46:23;;;;;;;1.30;1.20;;;21.60;66.10;;;;;;4991846;28;20212;-69
2023/07/26 06:48:49;;;;;;;1.25;1.20;;;21.60;66.10;;;;;;5003899;28;20206;-70
2023/07/26 06:51:15;;;;;;;1.60;1.30;;;21.60;66.10;;;;;;5006466;28;20188;-70
2023/07/26 06:53:41;;;;;;;1.30;1.20;;;21.60;66.20;;;;;;5010473;28;20239;-70
2023/07/26 06:56:06;;;;;;;1.00;1.00;;;21.60;66.10;;;;;;4982421;28;20633;-70
2023/07/26 06:58:32;;;;;;;1.15;1.13;;;21.60;66.20;;;;;;4995276;28;20181;-70
2023/07/26 07:00:58;;;;;;;1.73;1.40;;;21.60;66.20;;;;;;4987298;28;20230;-69
2023/07/26 07:03:24;;;;;;;1.83;1.10;;;21.60;66.10;;;;;;5003229;28;20188;-69
2023/07/26 07:05:50;;;;;;;1.17;1.10;;;21.60;66.10;;;;;;5011564;28;20282;-70
2023/07/26 07:08:16;;;;;;;1.60;1.10;;;21.60;66.20;;;;;;5008432;28;20185;-69
2023/07/26 07:10:41;;;;;;;1.65;1.55;;;21.60;66.10;;;;;;5009177;28;20234;-70
2023/07/26 07:13:07;;;;;;;2.33;1.60;;;21.60;66.10;;;;;;4995386;28;20216;-70
2023/07/26 07:15:33;;;;;;;1.65;1.38;;;21.60;66.10;;;;;;4995096;28;20212;-70
2023/07/26 07:17:58;;;;;;;1.25;1.20;;;21.60;66.10;;;;;;5003180;28;20187;-69
2023/07/26 07:20:24;;;;;;;1.27;1.17;;;21.60;66.10;;;;;;4982951;28;20184;-70
2023/07/26 07:22:52;;;;;;;1.02;1.02;;;21.60;66.10;;;;;;5000780;28;20184;-70
2023/07/26 07:25:18;;;;;;;1.27;1.27;;;21.60;66.10;;;;;;5000657;28;20211;-69
2023/07/26 07:27:44;;;;;;;1.70;1.60;;;21.60;66.10;;;;;;5006949;28;20192;-70
2023/07/26 07:30:10;;;;;;;1.20;1.20;;;21.60;66.10;;;;;;5012608;28;20191;-70
2023/07/26 07:32:37;;;;;;;1.10;1.10;;;21.60;66.10;;;;;;4994610;28;20177;-71
2023/07/26 07:35:06;;;;;;;1.17;1.08;;;21.70;66.20;;;;;;5011468;28;20258;-69
2023/07/26 07:37:31;;;;;;;1.60;1.50;;;21.60;66.00;;;;;;5012174;28;20180;-69
2023/07/26 07:39:57;;;;;;;1.75;1.45;;;21.60;66.00;;;;;;4995049;28;20694;-70
2023/07/26 07:42:23;;;;;;;1.25;1.15;;;21.70;66.00;;;;;;4995371;28;20188;-69
2023/07/26 07:44:48;;;;;;;1.52;1.42;;;21.70;66.00;;;;;;4994645;28;20212;-69
2023/07/26 07:47:14;;;;;;;1.42;1.33;;;21.70;66.10;;;;;;5005321;28;20207;-69
2023/07/26 07:49:40;;;;;;;1.13;1.13;;;21.70;66.00;;;;;;4994498;28;20250;-70
2023/07/26 07:52:06;;;;;;;1.38;1.27;;;21.70;66.10;;;;;;4974274;28;20181;-70
2023/07/26 07:54:32;;;;;;;1.52;1.33;;;21.70;66.10;;;;;;4995398;28;20207;-69
2023/07/26 07:56:57;;;;;;;1.27;1.17;;;21.70;66.10;;;;;;4994774;28;20195;-70
2023/07/26 07:59:23;;;;;;;1.33;1.23;;;21.70;66.10;;;;;;5004493;28;20185;-69
2023/07/26 08:01:49;;;;;;;1.30;1.20;;;21.60;66.00;;;;;;4976729;28;20188;-70
2023/07/26 08:04:14;;;;;;;1.48;1.30;;;21.70;66.20;;;;;;4987579;28;20593;-70
2023/07/26 08:06:40;;;;;;;1.10;0.95;;;21.70;66.10;;;;;;5010687;28;20208;-69
2023/07/26 08:09:06;;;;;;;1.50;1.40;;;21.70;66.10;;;;;;4994404;28;20659;-69
2023/07/26 08:11:32;;;;;;;1.55;1.45;;;21.70;66.20;;;;;;4994533;28;20188;-69
2023/07/26 08:13:58;;;;;;;1.30;1.20;;;21.70;66.20;;;;;;5010111;28;20186;-70
2023/07/26 08:16:23;;;;;;;1.05;1.05;;;21.70;67.00;;;;;;4978583;28;20187;-69
2023/07/26 08:18:49;;;;;;;1.50;1.40;;;21.60;66.00;;;;;;5010276;28;20184;-69
2023/07/26 08:21:15;;;;;;;1.30;1.20;;;21.60;66.10;;;;;;4977974;28;20188;-71
2023/07/26 08:23:41;;;;;;;1.20;1.10;;;21.70;66.20;;;;;;4999853;28;20195;-69
2023/07/26 08:26:07;;;;;;;1.40;1.30;;;21.70;66.10;;;;;;4994502;28;20694;-70
2023/07/26 08:28:33;;;;;;;1.42;1.33;;;21.60;66.10;;;;;;5010799;28;20184;-70
2023/07/26 08:30:59;;;;;;;1.17;1.15;;;21.70;66.10;;;;;;5010335;28;20238;-70
2023/07/26 08:33:25;;;;;;;1.33;1.23;;;21.60;66.00;;;;;;5007394;28;20208;-69
2023/07/26 08:35:51;;;;;;;1.60;1.50;;;21.70;66.10;;;;;;4992739;28;20251;-69
2023/07/26 08:38:19;;;;;;;1.55;1.27;;;21.60;66.10;;;;;;4978024;28;20203;-70
2023/07/26 08:40:48;;;;;;;1.27;1.17;;;21.60;66.10;;;;;;4986076;28;20231;-69
2023/07/26 08:43:17;;;;;;;1.50;1.40;;;21.70;66.20;;;;;;5002627;28;20192;-69
2023/07/26 08:45:44;;;;;;;1.23;1.20;;;21.60;66.10;;;;;;4993735;28;20286;-70
2023/07/26 08:48:10;;;;;;;1.23;1.13;;;21.60;66.10;;;;;;5010239;28;20206;-69
2023/07/26 08:50:39;;;;;;;1.70;1.20;;;21.60;66.20;;;;;;5010498;28;20180;-69
2023/07/26 08:53:06;;;;;;;1.52;1.40;;;21.60;66.10;;;;;;5010482;28;20176;-69
2023/07/26 08:55:33;;;;;;;1.20;1.10;;;21.60;66.10;;;;;;5010028;28;20208;-70
2023/07/26 08:58:00;;;;;;;1.33;1.23;;;21.60;66.10;;;;;;4977627;28;20188;-70
2023/07/26 09:00:27;;;;;;;1.77;1.42;;;21.60;66.10;;;;;;5011544;28;20182;-69
2023/07/26 09:02:57;;;;;;;1.33;1.23;;;21.60;66.20;;;;;;4977503;28;20203;-69
2023/07/26 09:05:24;;;;;;;1.60;1.20;;;21.60;66.20;;;;;;5018213;28;20207;-69
2023/07/26 09:07:52;;;;;;;1.35;1.25;;;21.60;67.00;;;;;;4985782;28;20185;-69
2023/07/26 09:10:28;;;;;;;1.20;1.20;;;21.60;66.20;;;;;;4986162;28;20184;-69
2023/07/26 09:13:12;;;;;;;1.40;1.30;;;21.60;66.20;;;;;;4977888;28;20188;-70
2023/07/26 09:15:40;;;;;;;1.50;1.40;;;21.60;66.20;;;;;;5011430;28;20265;-69
2023/07/26 09:18:07;;;;;;;1.08;1.08;;;21.60;66.20;;;;;;5014939;28;20199;-69
2023/07/26 09:20:35;;;;;;;1.42;1.33;;;21.60;66.20;;;;;;5013808;28;20176;-69
2023/07/26 09:23:09;;;;;;;1.42;1.23;;;21.60;66.10;;;;;;5013831;28;20557;-69
2023/07/26 09:25:44;;;;;;;1.10;1.02;;;21.60;66.10;;;;;;5009245;28;20257;-70
2023/07/26 09:28:15;;;;;;;1.20;1.20;;;21.60;66.10;;;;;;4991560;28;20639;-70
2023/07/26 09:30:45;;;;;;;1.17;1.17;;;21.60;66.10;;;;;;5034331;28;20187;-69
2023/07/26 09:33:12;;;;;;;1.50;1.40;;;21.60;66.20;;;;;;5033648;28;20184;-70
2023/07/26 09:35:52;;;;;;;1.52;1.42;;;21.60;66.20;;;;;;5025334;28;20227;-70
2023/07/26 09:38:24;;;;;;;1.27;1.20;;;21.60;66.20;;;;;;5004574;28;20187;-69
2023/07/26 09:40:50;;;;;;;1.33;1.23;;;21.60;66.20;;;;;;5005126;28;20188;-69
2023/07/26 09:43:32;;;;;;;1.10;1.10;;;21.60;66.00;;;;;;4998505;28;20191;-70
2023/07/26 09:46:02;;;;;;;1.20;1.20;;;21.60;66.20;;;;;;5014116;28;20226;-70
2023/07/26 09:48:28;;;;;;;1.23;1.23;;;21.60;66.10;;;;;;4988546;28;20195;-69
2023/07/26 09:50:56;;;;;;;1.50;1.10;;;21.60;66.10;;;;;;4999942;28;20266;-69
2023/07/26 09:53:25;;;;;;;1.00;1.00;;;21.60;66.10;;;;;;5016098;28;20268;-70
2023/07/26 09:55:51;;;;;;;1.42;1.33;;;21.60;66.00;;;;;;5009084;28;20650;-69
2023/07/26 09:58:20;;;;;;;1.17;1.13;;;21.60;66.10;;;;;;5013235;28;20219;-70
2023/07/26 10:00:49;;;;;;;1.23;1.13;;;21.60;66.00;;;;;;4994297;28;20185;-69
2023/07/26 10:03:19;;;;;;;1.10;1.02;;;21.60;66.00;;;;;;4980500;28;20563;-69
2023/07/26 10:05:50;;;;;;;1.15;1.15;;;21.60;66.00;;;;;;5004871;28;20219;-69
2023/07/26 10:08:19;;;;;;;1.02;0.95;;;21.60;66.00;;;;;;4998124;28;20180;-69
2023/07/26 10:10:47;;;;;;;1.20;1.20;;;21.60;66.10;;;;;;5014014;28;20191;-69
2023/07/26 10:13:16;;;;;;;1.02;1.02;;;21.60;66.00;;;;;;5010308;28;20194;-69
2023/07/26 10:15:46;;;;;;;1.00;1.00;;;21.60;66.00;;;;;;5007459;28;20199;-70
2023/07/26 10:18:17;;;;;;;1.45;1.15;;;21.60;66.00;;;;;;5001252;28;20181;-70
2023/07/26 10:20:45;;;;;;;1.10;1.10;;;21.60;66.00;;;;;;5009238;28;20199;-70
2023/07/26 10:23:12;;;;;;;1.17;1.10;;;21.60;66.00;;;;;;4989104;28;20180;-69
2023/07/26 10:25:40;;;;;;;1.08;1.08;;;21.60;66.00;;;;;;5000474;28;20208;-70
2023/07/26 10:28:07;;;;;;;1.05;1.05;;;21.60;66.00;;;;;;4995647;28;20254;-69
2023/07/26 10:30:33;;;;;;;1.10;1.00;;;21.60;66.00;;;;;;4996164;28;20188;-70
2023/07/26 10:33:00;;;;;;;0.82;0.82;;;21.60;66.00;;;;;;4996117;28;20235;-70
2023/07/26 10:35:32;;;;;;;1.05;1.05;;;21.60;66.00;;;;;;4980015;28;20729;-69
2023/07/26 10:38:02;;;;;;;1.08;1.08;;;21.60;66.00;;;;;;5012956;28;20194;-69
2023/07/26 10:40:37;;;;;;;1.17;1.10;;;21.60;65.90;;;;;;4992608;28;20205;-69
2023/07/26 10:43:40;;;;;;;1.27;1.00;;;21.60;65.90;;;;;;5011439;28;20175;-69
2023/07/26 10:46:13;;;;;;;0.80;0.80;;;21.70;66.00;;;;;;4963558;28;20220;-69
2023/07/26 10:48:41;;;;;;;1.27;0.98;;;21.60;66.00;;;;;;5003772;28;20183;-69
2023/07/26 10:51:32;;;;;;;1.10;1.10;;;21.60;65.90;;;;;;4992470;28;20252;-69
2023/07/26 10:53:59;;;;;;;1.13;1.13;;;21.60;65.90;;;;;;4993850;28;20199;-70
2023/07/26 10:56:36;;;;;;;1.00;1.00;;;21.60;65.80;;;;;;5011954;28;20204;-69
2023/07/26 10:59:05;;;;;;;0.90;0.90;;;21.70;66.00;;;;;;5008990;28;20673;-69
2023/07/26 11:01:44;;;;;;;1.17;1.08;;;21.70;65.90;;;;;;4987502;28;20181;-69
2023/07/26 11:04:30;;;;;;;1.45;1.23;;;21.70;65.80;;;;;;4974498;28;20728;-73
2023/07/26 11:07:04;;;;;;;0.90;0.90;;;21.70;65.90;;;;;;4996186;28;20265;-69
2023/07/26 11:09:33;;;;;;;1.10;1.10;;;21.70;66.00;;;;;;5008426;28;20187;-70
2023/07/26 11:12:10;;;;;;;0.90;0.90;;;21.70;65.90;;;;;;5010739;28;20263;-70
2023/07/26 11:14:37;;;;;;;1.10;1.00;;;21.70;66.00;;;;;;4995887;28;20232;-70
2023/07/26 11:17:16;;;;;;;0.85;0.85;;;21.60;66.00;;;;;;5011167;28;20188;-70
2023/07/26 11:19:48;;;;;;;1.02;1.02;;;21.60;65.90;;;;;;4994831;28;20191;-70
2023/07/26 11:22:14;;;;;;;1.10;1.00;;;21.60;66.00;;;;;;5011398;28;20206;-70
2023/07/26 11:24:40;;;;;;;0.80;0.80;;;21.60;65.90;;;;;;4995188;28;20227;-70
2023/07/26 11:27:07;;;;;;;1.20;1.13;;;21.60;65.90;;;;;;5027330;28;20212;-70
2023/07/26 11:29:33;;;;;;;0.98;0.98;;;21.60;65.90;;;;;;5011405;28;20180;-69
2023/07/26 11:32:00;;;;;;;1.15;1.10;;;21.60;66.00;;;;;;4996594;28;20184;-70
2023/07/26 11:34:25;;;;;;;1.00;1.00;;;21.60;66.00;;;;;;5004954;28;20756;-70
2023/07/26 11:36:51;;;;;;;0.93;0.93;;;21.60;65.90;;;;;;4998539;28;20197;-69
2023/07/26 11:39:25;;;;;;;1.10;1.00;;;21.60;65.90;;;;;;5003207;28;20196;-69
2023/07/26 11:41:52;;;;;;;1.20;1.10;;;21.60;66.00;;;;;;5011502;28;20274;-70
2023/07/26 11:44:22;;;;;;;0.90;0.90;;;21.60;66.00;;;;;;4988096;28;20212;-70
2023/07/26 11:46:49;;;;;;;1.05;1.05;;;21.60;66.00;;;;;;4991799;28;20262;-68
2023/07/26 11:49:23;;;;;;;1.02;1.02;;;21.60;65.90;;;;;;4986771;28;20698;-69
2023/07/26 11:51:50;;;;;;;1.05;1.05;;;21.60;65.90;;;;;;4986328;28;20234;-69
2023/07/26 11:54:17;;;;;;;1.00;1.00;;;21.70;66.00;;;;;;4975883;28;20200;-70
2023/07/26 11:56:44;;;;;;;1.00;1.00;;;21.60;66.00;;;;;;5003723;28;20176;-69
2023/07/26 11:59:11;;;;;;;0.90;0.90;;;21.70;66.00;;;;;;5007492;28;20203;-69
2023/07/26 12:01:39;;;;;;;1.00;1.00;;;21.60;65.90;;;;;;4999566;28;20204;-69
2023/07/26 12:04:16;;;;;;;0.90;0.90;;;21.70;65.90;;;;;;5001640;28;20187;-69
2023/07/26 12:06:44;;;;;;;1.00;1.00;;;21.70;65.90;;;;;;5001850;28;20204;-72
2023/07/26 12:09:13;;;;;;;0.90;0.90;;;21.70;65.90;;;;;;4994605;28;20295;-69
2023/07/26 12:11:48;;;;;;;1.23;1.13;;;21.70;66.00;;;;;;5007794;28;20216;-68
2023/07/26 12:14:19;;;;;;;0.90;0.90;;;21.70;66.00;;;;;;5007217;28;20245;-68
2023/07/26 12:16:51;;;;;;;0.90;0.90;;;21.70;66.00;;;;;;4991423;28;20252;-69
2023/07/26 12:19:25;;;;;;;1.05;1.00;;;21.70;66.00;;;;;;5003197;28;20215;-69
2023/07/26 12:21:51;;;;;;;1.35;1.23;;;21.70;66.10;;;;;;5002231;28;20202;-69
2023/07/26 12:24:18;;;;;;;1.27;1.17;;;21.70;66.00;;;;;;4977216;28;20319;-68
2023/07/26 12:26:47;;;;;;;1.10;1.10;;;21.70;66.00;;;;;;5006823;28;20218;-68
2023/07/26 12:29:13;;;;;;;1.35;1.20;;;21.60;65.90;;;;;;5010440;28;20183;-69
2023/07/26 12:31:39;;;;;;;1.42;1.30;;;21.70;66.00;;;;;;5007571;28;20185;-69
2023/07/26 12:34:08;;;;;;;3.05;1.38;;;21.70;66.00;;;;;;4984644;28;20683;-69
2023/07/26 12:36:37;;;;;;;1.42;1.20;;;21.70;66.00;;;;;;4994120;28;20188;-68
2023/07/26 12:39:07;;;;;;;1.70;1.60;;;21.70;66.00;;;;;;4977281;28;20187;-68
2023/07/26 12:41:36;;;;;;;1.42;1.33;;;21.70;66.00;;;;;;4997153;28;20267;-68
2023/07/26 12:44:07;;;;;;;2.15;1.30;;;21.70;66.00;;;;;;4984880;28;20196;-68
2023/07/26 12:46:37;;;;;;;1.73;1.40;;;21.70;66.00;;;;;;5010702;28;20207;-68
2023/07/26 12:49:06;;;;;;;1.50;1.40;;;21.70;66.00;;;;;;4977886;28;20203;-67